Time;durP1;ratioP1;P1;durP2;ratioP2;P2;SDS_P1;SDS_P2;PMS_P1;PMS_P2;Temp;Humidity;BMP_temperature;BMP_pressure;BME280_temperature;BME280_humidity;BME280_pressure;Samples;Min_cycle;Max_cycle;Signal;HPM_P1;HPM_P2
2021/01/24 00:01:47;;;;;;;7.43;4.87;;;;;;;;;;4976256;28;20290;-80
2021/01/24 00:04:13;;;;;;;5.53;4.10;;;;;;;;;;4976460;28;20220;-79
2021/01/24 00:06:38;;;;;;;5.70;4.20;;;-1.50;96.30;;;;;;4975856;28;20174;-80
2021/01/24 00:09:04;;;;;;;5.73;4.50;;;-1.50;96.30;;;;;;4977649;28;20437;-80
2021/01/24 00:11:30;;;;;;;5.60;4.17;;;;;;;;;;4960190;28;20188;-80
2021/01/24 00:13:55;;;;;;;5.77;4.20;;;-1.60;96.30;;;;;;4959274;28;20187;-80
2021/01/24 00:16:21;;;;;;;6.27;4.53;;;;;;;;;;4940277;29;20221;-79
2021/01/24 00:18:47;;;;;;;4.83;3.70;;;-1.50;96.30;;;;;;4940621;29;20219;-80
2021/01/24 00:21:13;;;;;;;4.40;4.00;;;;;;;;;;4941093;29;20411;-80
2021/01/24 00:23:38;;;;;;;4.33;3.70;;;;;;;;;;4940845;29;20785;-80
2021/01/24 00:26:04;;;;;;;5.23;4.50;;;-1.70;96.30;;;;;;4957887;29;20171;-80
2021/01/24 00:28:30;;;;;;;5.87;4.30;;;;;;;;;;4957174;28;20210;-80
2021/01/24 00:30:56;;;;;;;4.60;3.80;;;;;;;;;;4940662;29;20277;-80
2021/01/24 00:33:21;;;;;;;5.20;4.13;;;-2.00;96.30;;;;;;4940658;29;20187;-80
2021/01/24 00:35:47;;;;;;;5.57;4.77;;;;;;;;;;4957433;29;20175;-80
2021/01/24 00:38:13;;;;;;;10.57;6.57;;;;;;;;;;4957817;28;20199;-80
2021/01/24 00:40:39;;;;;;;6.00;4.97;;;-2.00;96.30;;;;;;4957875;29;20733;-80
2021/01/24 00:43:04;;;;;;;5.70;4.53;;;-2.00;96.30;;;;;;4940970;29;20788;-80
2021/01/24 00:45:30;;;;;;;8.63;5.10;;;-2.00;96.30;;;;;;4957146;29;20226;-80
2021/01/24 00:47:55;;;;;;;8.93;5.60;;;-1.90;96.30;;;;;;4940277;29;20323;-80
2021/01/24 00:50:21;;;;;;;13.47;9.40;;;-1.80;96.30;;;;;;4957784;29;20226;-80
2021/01/24 00:52:46;;;;;;;131.47;60.53;;;-1.70;96.30;;;;;;4957439;29;20183;-80
2021/01/24 00:55:12;;;;;;;156.20;69.90;;;;;;;;;;4939013;29;20663;-80
2021/01/24 00:57:38;;;;;;;23.77;11.90;;;;;;;;;;4940149;29;20694;-80
2021/01/24 05:02:54;;;;;;;3.23;2.67;;;-1.70;96.30;;;;;;4935171;29;20443;-78
2021/01/24 05:05:20;;;;;;;5.87;4.17;;;-1.70;96.30;;;;;;4936128;29;20868;-77
2021/01/24 05:07:56;;;;;;;7.97;4.33;;;-1.70;96.30;;;;;;4935250;29;20195;-77
2021/01/24 05:10:23;;;;;;;5.53;4.00;;;-1.70;96.30;;;;;;4935108;29;20318;-77
2021/01/24 05:12:48;;;;;;;6.30;3.40;;;-1.70;96.30;;;;;;4951281;28;20514;-78
2021/01/24 05:15:14;;;;;;;3.80;2.77;;;-1.80;96.30;;;;;;4951388;28;20459;-77
2021/01/24 05:17:53;;;;;;;6.97;4.07;;;-1.70;96.30;;;;;;4951334;28;20549;-78
2021/01/24 05:20:27;;;;;;;12.73;6.73;;;-1.70;96.30;;;;;;4936572;29;20202;-77
2021/01/24 05:22:54;;;;;;;12.50;6.90;;;-1.70;96.30;;;;;;4936495;29;20426;-78
2021/01/24 05:25:24;;;;;;;6.93;4.60;;;-1.70;96.30;;;;;;4935947;29;20412;-77
2021/01/24 05:27:50;;;;;;;5.87;4.20;;;-1.80;96.30;;;;;;4936078;29;20799;-78
2021/01/24 05:30:21;;;;;;;5.40;4.00;;;-1.80;96.30;;;;;;4950995;29;20463;-77
2021/01/24 05:32:46;;;;;;;3.67;3.30;;;-1.80;96.30;;;;;;4936341;29;20458;-78
2021/01/24 05:35:13;;;;;;;4.47;3.20;;;-1.80;96.30;;;;;;4935771;29;20420;-78
2021/01/24 05:37:40;;;;;;;5.20;4.30;;;-1.80;96.30;;;;;;4936218;29;20203;-78
2021/01/24 05:40:08;;;;;;;6.20;4.07;;;-1.90;96.30;;;;;;4936230;29;20536;-78
2021/01/24 05:42:35;;;;;;;5.40;4.07;;;-1.90;96.30;;;;;;4935680;29;20440;-79
2021/01/24 05:45:00;;;;;;;6.77;4.23;;;-1.90;96.30;;;;;;4936308;29;20921;-78
2021/01/24 05:47:26;;;;;;;4.90;3.53;;;-2.00;96.30;;;;;;4937128;29;20422;-78
2021/01/24 05:49:52;;;;;;;3.23;2.73;;;-2.00;96.30;;;;;;4934769;29;20223;-79
2021/01/24 05:52:20;;;;;;;4.20;2.73;;;-2.10;96.30;;;;;;4935938;29;20208;-77
2021/01/24 05:54:47;;;;;;;3.53;2.67;;;-2.10;96.30;;;;;;4935881;29;20267;-77
2021/01/24 05:57:14;;;;;;;3.00;2.70;;;-2.20;96.30;;;;;;4935442;29;20495;-77
2021/01/24 05:59:49;;;;;;;3.17;2.63;;;-2.20;96.30;;;;;;4935896;29;20436;-78
2021/01/24 06:02:16;;;;;;;3.20;2.80;;;-2.10;96.30;;;;;;4938995;29;20513;-78
2021/01/24 06:04:42;;;;;;;3.23;2.33;;;-2.20;96.30;;;;;;4954900;28;20427;-77
2021/01/24 06:07:08;;;;;;;2.97;2.53;;;-2.20;96.30;;;;;;4954341;28;20426;-78
2021/01/24 06:09:33;;;;;;;4.43;3.47;;;-2.10;96.30;;;;;;4954766;29;20422;-78
2021/01/24 06:12:02;;;;;;;4.07;3.50;;;-2.10;96.30;;;;;;4951738;29;20290;-79
2021/01/24 06:14:28;;;;;;;5.67;3.20;;;-2.10;96.30;;;;;;4935640;29;20183;-78
2021/01/24 06:17:00;;;;;;;4.67;3.40;;;-2.00;96.30;;;;;;4935027;29;20416;-78
2021/01/24 06:19:34;;;;;;;4.90;3.23;;;-1.90;96.30;;;;;;4934244;29;20460;-79
2021/01/24 06:22:00;;;;;;;4.63;3.40;;;-1.90;96.30;;;;;;4935323;29;20486;-79
2021/01/24 06:24:34;;;;;;;5.30;3.80;;;-1.90;96.30;;;;;;4935380;29;20423;-78
2021/01/24 06:27:02;;;;;;;4.73;3.63;;;-1.90;96.30;;;;;;4933632;29;20423;-79
2021/01/24 06:29:30;;;;;;;7.97;4.37;;;-1.80;96.30;;;;;;4950047;28;20806;-78
2021/01/24 06:31:56;;;;;;;12.80;5.00;;;-1.80;96.30;;;;;;4935106;29;20863;-78
2021/01/24 06:34:40;;;;;;;3.57;3.27;;;-1.80;96.30;;;;;;4935233;29;20558;-78
2021/01/24 06:37:10;;;;;;;5.77;2.97;;;-1.80;96.30;;;;;;4934704;29;20807;-80
2021/01/24 06:39:50;;;;;;;6.40;4.33;;;-1.90;96.30;;;;;;4935145;29;20462;-79
2021/01/24 06:42:34;;;;;;;7.50;5.20;;;-1.90;96.30;;;;;;4935135;29;20544;-78
2021/01/24 06:45:00;;;;;;;5.60;4.20;;;-1.80;96.30;;;;;;4934014;29;20498;-80
2021/01/24 06:47:40;;;;;;;6.40;4.00;;;-1.80;96.30;;;;;;4934937;29;20527;-78
2021/01/24 06:50:35;;;;;;;6.00;4.00;;;-1.80;96.30;;;;;;4931525;29;20263;-79
2021/01/24 06:53:27;;;;;;;5.90;3.30;;;-1.70;96.30;;;;;;4925838;29;20427;-79
2021/01/24 06:56:01;;;;;;;4.83;4.10;;;-1.60;96.30;;;;;;4925757;29;20427;-82
2021/01/24 06:58:26;;;;;;;4.30;3.70;;;-1.50;96.30;;;;;;4937360;28;20464;-79
2021/01/24 07:01:12;;;;;;;7.07;4.53;;;-1.40;96.30;;;;;;4938677;29;20462;-78
2021/01/24 07:03:38;;;;;;;4.23;3.70;;;-1.40;96.30;;;;;;4924927;29;20625;-78
2021/01/24 07:06:32;;;;;;;6.10;3.93;;;-1.40;96.30;;;;;;4947223;29;20503;-79
2021/01/24 07:08:58;;;;;;;4.83;3.80;;;-1.40;96.30;;;;;;4930599;29;20188;-79
2021/01/24 07:11:50;;;;;;;7.73;3.97;;;-1.30;96.30;;;;;;4933313;29;20935;-82
2021/01/24 07:14:34;;;;;;;10.43;7.47;;;-1.30;96.30;;;;;;4932013;29;20656;-79
2021/01/24 07:17:04;;;;;;;6.60;4.80;;;-1.30;96.30;;;;;;4942726;28;20419;-79
2021/01/24 07:19:32;;;;;;;8.30;4.90;;;-1.20;96.30;;;;;;4933420;29;20463;-80
2021/01/24 07:21:58;;;;;;;11.07;4.97;;;-1.20;96.30;;;;;;4930147;29;20462;-79
2021/01/24 07:24:25;;;;;;;8.13;5.30;;;-1.20;96.30;;;;;;4933886;29;20757;-80
2021/01/24 07:26:54;;;;;;;6.03;4.00;;;-1.10;96.30;;;;;;4925682;29;20410;-79
2021/01/24 07:29:19;;;;;;;4.53;3.90;;;-1.10;96.30;;;;;;4926313;29;20491;-81
2021/01/24 07:31:45;;;;;;;5.77;4.57;;;-1.10;96.30;;;;;;4929088;29;20529;-80
2021/01/24 07:34:10;;;;;;;5.67;3.80;;;-1.00;96.30;;;;;;4926105;29;20200;-79
2021/01/24 07:36:36;;;;;;;6.70;5.07;;;-1.00;96.30;;;;;;4922954;29;20188;-82
2021/01/24 07:39:02;;;;;;;9.20;4.50;;;-1.00;96.30;;;;;;4929725;29;20294;-79
2021/01/24 07:41:31;;;;;;;6.90;4.80;;;-1.00;96.30;;;;;;4930876;29;20227;-79
2021/01/24 07:43:56;;;;;;;6.90;5.90;;;-1.00;96.30;;;;;;4921200;29;20455;-80
2021/01/24 07:46:23;;;;;;;3.90;3.50;;;-1.00;96.30;;;;;;4929598;29;20936;-80
2021/01/24 07:48:48;;;;;;;6.63;4.77;;;-1.00;96.30;;;;;;4942919;29;20758;-79
2021/01/24 07:51:15;;;;;;;10.03;5.67;;;-1.00;96.30;;;;;;4936435;29;20458;-81
2021/01/24 07:53:40;;;;;;;16.23;7.67;;;-1.00;96.30;;;;;;4930660;29;20638;-80
2021/01/24 07:56:06;;;;;;;7.93;5.00;;;-1.00;96.30;;;;;;4933250;29;20427;-79
2021/01/24 07:58:32;;;;;;;7.30;5.17;;;-1.00;96.30;;;;;;4931364;29;20259;-79
2021/01/24 08:00:58;;;;;;;7.53;4.83;;;-0.90;96.30;;;;;;4934604;29;20216;-79
2021/01/24 08:03:23;;;;;;;10.10;4.93;;;-0.90;96.30;;;;;;4929743;29;20423;-79
2021/01/24 08:05:49;;;;;;;9.00;6.00;;;-0.90;96.30;;;;;;4931428;29;20192;-80
2021/01/24 08:08:15;;;;;;;5.80;3.90;;;-0.90;96.30;;;;;;4925855;29;20192;-79
2021/01/24 08:10:40;;;;;;;9.80;5.70;;;-0.90;96.30;;;;;;4927720;29;20556;-79
2021/01/24 08:13:06;;;;;;;17.40;8.70;;;-0.90;96.30;;;;;;4950677;28;20515;-79
2021/01/24 08:15:32;;;;;;;9.33;5.57;;;-0.80;96.30;;;;;;4934762;29;20192;-79
2021/01/24 08:17:59;;;;;;;10.30;6.13;;;-0.90;96.30;;;;;;4925840;29;20310;-80
2021/01/24 08:20:26;;;;;;;9.43;5.27;;;-0.80;96.30;;;;;;4936207;29;20592;-80
2021/01/24 08:22:51;;;;;;;10.57;6.00;;;-0.80;96.30;;;;;;4932846;29;20455;-80
2021/01/24 08:25:18;;;;;;;10.43;9.10;;;-0.70;96.30;;;;;;4932148;29;20411;-79
2021/01/24 08:27:45;;;;;;;6.57;4.83;;;-0.70;96.30;;;;;;4936063;29;20191;-80
2021/01/24 08:30:11;;;;;;;13.43;8.40;;;-0.70;96.30;;;;;;4935584;29;20608;-80
2021/01/24 08:32:39;;;;;;;8.37;3.97;;;-0.70;96.30;;;;;;4935867;29;21003;-79
2021/01/24 08:35:06;;;;;;;6.40;4.80;;;-0.70;96.30;;;;;;4924386;29;20430;-79
2021/01/24 08:37:31;;;;;;;5.83;4.60;;;-0.70;96.30;;;;;;4921998;29;20428;-79
2021/01/24 08:39:58;;;;;;;4.13;3.73;;;-0.70;96.30;;;;;;4934793;29;20424;-79
2021/01/24 08:42:23;;;;;;;5.00;4.13;;;-0.70;96.30;;;;;;4931568;29;20210;-79
2021/01/24 08:45:05;;;;;;;4.10;2.97;;;-0.70;96.30;;;;;;4930706;29;20854;-79
2021/01/24 08:47:30;;;;;;;3.80;3.40;;;-0.70;96.30;;;;;;4934499;29;20171;-79
2021/01/24 08:50:07;;;;;;;5.93;3.20;;;-0.70;96.30;;;;;;4921700;29;20424;-80
2021/01/24 08:52:32;;;;;;;3.70;2.60;;;-0.70;96.30;;;;;;4948621;28;20195;-80
2021/01/24 08:55:05;;;;;;;4.70;3.20;;;-0.70;96.30;;;;;;4932049;29;20902;-79
2021/01/24 08:57:33;;;;;;;3.57;2.30;;;-0.70;96.30;;;;;;4931555;29;20176;-78
2021/01/24 09:00:01;;;;;;;2.63;1.90;;;-0.80;96.30;;;;;;4931512;29;20407;-79
2021/01/24 09:02:45;;;;;;;5.43;2.77;;;-0.80;96.30;;;;;;4950579;28;20459;-79
2021/01/24 09:05:31;;;;;;;4.23;3.20;;;-0.70;96.30;;;;;;4939861;29;20430;-81
2021/01/24 09:07:57;;;;;;;2.90;2.30;;;-0.70;96.30;;;;;;4941071;29;20423;-79
2021/01/24 09:10:31;;;;;;;4.97;2.40;;;-0.50;96.30;;;;;;4942256;29;20450;-78
2021/01/24 09:13:02;;;;;;;2.97;2.63;;;-0.50;96.30;;;;;;4930434;29;20269;-81
2021/01/24 09:15:30;;;;;;;3.13;2.70;;;-0.40;96.30;;;;;;4933929;29;20459;-79
2021/01/24 09:17:57;;;;;;;4.20;3.10;;;-0.30;96.30;;;;;;4940309;28;20468;-79
2021/01/24 09:20:24;;;;;;;4.90;3.40;;;-0.30;96.30;;;;;;4926978;29;20937;-79
2021/01/24 09:22:50;;;;;;;4.37;3.17;;;-0.20;96.30;;;;;;4935455;29;20503;-79
2021/01/24 09:25:16;;;;;;;4.33;2.80;;;-0.20;96.30;;;;;;4928831;29;21014;-79
2021/01/24 09:27:42;;;;;;;5.77;4.50;;;-0.20;96.30;;;;;;4935700;29;20982;-79
2021/01/24 09:30:10;;;;;;;6.50;4.10;;;-0.20;96.30;;;;;;4935813;29;20415;-80
2021/01/24 09:32:36;;;;;;;6.57;3.77;;;-0.10;96.30;;;;;;4938681;29;20191;-80
2021/01/24 09:35:02;;;;;;;6.93;4.37;;;0.00;96.30;;;;;;4939470;29;20428;-80
2021/01/24 09:37:27;;;;;;;6.37;3.73;;;0.00;96.30;;;;;;4938834;29;20262;-78
2021/01/24 09:39:53;;;;;;;6.20;4.03;;;-0.10;96.30;;;;;;4936432;29;20411;-79
2021/01/24 09:42:18;;;;;;;3.07;2.40;;;0.00;96.30;;;;;;4937288;29;20203;-80
2021/01/24 09:44:44;;;;;;;4.27;2.93;;;0.30;96.30;;;;;;4935838;29;20188;-78
2021/01/24 09:47:09;;;;;;;4.30;2.40;;;0.30;96.30;;;;;;4935673;29;20214;-78
2021/01/24 09:49:35;;;;;;;4.47;3.17;;;0.30;96.30;;;;;;4935977;29;20179;-78
2021/01/24 09:52:00;;;;;;;5.00;2.73;;;0.40;96.30;;;;;;4935890;29;20207;-78
2021/01/24 09:54:26;;;;;;;11.53;6.87;;;0.30;96.30;;;;;;4935921;29;20664;-78
2021/01/24 09:56:52;;;;;;;13.23;8.57;;;0.20;96.30;;;;;;4935433;29;20184;-78
2021/01/24 09:59:17;;;;;;;8.20;3.70;;;0.30;96.30;;;;;;4935715;29;20207;-79
2021/01/24 10:01:44;;;;;;;6.23;4.10;;;0.50;96.30;;;;;;4935617;29;20298;-79
2021/01/24 10:04:10;;;;;;;3.90;3.03;;;0.60;96.30;;;;;;4950698;28;20256;-78
2021/01/24 10:06:35;;;;;;;4.20;3.20;;;0.80;96.30;;;;;;4934797;29;20784;-79
2021/01/24 10:09:01;;;;;;;6.50;3.10;;;0.70;96.30;;;;;;4936869;29;20183;-81
2021/01/24 10:11:27;;;;;;;4.60;3.97;;;0.90;96.30;;;;;;4935750;29;20191;-78
2021/01/24 10:13:53;;;;;;;6.07;3.63;;;1.00;96.30;;;;;;4935138;29;20431;-78
2021/01/24 10:16:18;;;;;;;6.33;4.47;;;1.10;96.30;;;;;;4934694;29;20455;-78
2021/01/24 10:18:44;;;;;;;3.70;3.40;;;1.40;96.30;;;;;;4935205;29;20218;-79
2021/01/24 10:21:09;;;;;;;5.10;3.70;;;1.50;96.30;;;;;;4935742;29;20286;-79
2021/01/24 10:23:35;;;;;;;3.87;3.00;;;1.40;96.30;;;;;;4938310;29;20180;-83
2021/01/24 10:26:01;;;;;;;3.70;2.60;;;1.70;96.30;;;;;;4923001;29;20184;-84
2021/01/24 10:28:27;;;;;;;2.90;2.13;;;2.00;96.30;;;;;;4946480;28;20191;-85
2021/01/24 10:30:54;;;;;;;7.50;5.70;;;2.30;96.30;;;;;;4936683;29;20204;-85
2021/01/24 10:33:21;;;;;;;3.77;2.80;;;2.60;96.30;;;;;;4936006;29;20432;-83
2021/01/24 10:35:47;;;;;;;3.90;2.60;;;2.90;96.30;;;;;;4935591;29;20442;-83
2021/01/24 10:38:13;;;;;;;2.80;2.27;;;2.80;96.30;;;;;;4939493;29;20471;-82
2021/01/24 10:40:39;;;;;;;8.07;3.10;;;3.10;96.30;;;;;;4940865;29;20841;-83
2021/01/24 10:43:06;;;;;;;2.90;2.13;;;3.00;96.30;;;;;;4955718;29;20483;-84
2021/01/24 10:45:32;;;;;;;2.10;1.80;;;3.40;96.30;;;;;;4932046;29;20262;-86
2021/01/24 10:47:59;;;;;;;2.53;2.00;;;3.60;96.30;;;;;;4934284;29;20434;-84
2021/01/24 10:50:25;;;;;;;2.77;1.70;;;3.40;96.30;;;;;;4944929;29;20440;-84
2021/01/24 10:52:51;;;;;;;3.70;2.10;;;3.50;96.30;;;;;;4936076;29;20435;-85
2021/01/24 10:55:16;;;;;;;2.70;1.70;;;4.00;96.30;;;;;;4951916;28;21118;-82
2021/01/24 10:57:42;;;;;;;1.80;1.57;;;3.90;96.30;;;;;;4937592;29;20599;-83
2021/01/24 11:00:09;;;;;;;2.80;2.30;;;3.60;96.30;;;;;;4953135;28;20168;-82
2021/01/24 11:02:35;;;;;;;2.17;1.97;;;3.70;96.30;;;;;;4936718;29;20187;-83
2021/01/24 11:05:00;;;;;;;2.97;1.80;;;3.60;96.30;;;;;;4937836;29;20415;-82
2021/01/24 11:07:27;;;;;;;2.60;1.97;;;3.50;96.30;;;;;;4937965;29;20687;-83
2021/01/24 11:09:53;;;;;;;1.77;1.47;;;3.40;96.30;;;;;;4919405;29;20652;-82
2021/01/24 11:12:19;;;;;;;2.90;1.57;;;3.40;96.30;;;;;;4918968;29;20479;-83
2021/01/24 11:14:44;;;;;;;1.50;1.10;;;3.20;96.30;;;;;;4920352;29;20415;-84
2021/01/24 11:17:10;;;;;;;1.73;1.23;;;3.00;96.30;;;;;;4915927;29;20676;-85
2021/01/24 11:19:39;;;;;;;1.47;1.00;;;2.50;96.30;;;;;;4916168;29;20294;-83
2021/01/24 11:22:04;;;;;;;1.40;1.20;;;2.50;96.30;;;;;;4915549;29;20207;-84
2021/01/24 11:24:30;;;;;;;1.60;1.17;;;2.50;96.30;;;;;;4928836;29;20411;-83
2021/01/24 11:26:56;;;;;;;2.63;2.27;;;2.60;96.30;;;;;;4932079;29;20176;-83
2021/01/24 11:29:21;;;;;;;1.13;0.97;;;2.60;96.30;;;;;;4924887;29;20670;-84
2021/01/24 11:31:47;;;;;;;1.53;1.40;;;2.40;96.30;;;;;;4922268;29;20204;-83
2021/01/24 11:34:12;;;;;;;1.33;1.23;;;2.70;96.30;;;;;;4923181;29;20530;-84
2021/01/24 11:36:38;;;;;;;1.10;0.80;;;2.50;96.30;;;;;;4931686;29;20576;-84
2021/01/24 11:39:04;;;;;;;1.40;0.90;;;2.60;96.30;;;;;;4935546;29;20204;-83
2021/01/24 11:41:30;;;;;;;1.80;1.10;;;2.50;96.30;;;;;;4938986;29;20207;-84
2021/01/24 11:43:55;;;;;;;1.10;0.87;;;2.90;96.30;;;;;;4935453;29;20420;-83
2021/01/24 11:46:21;;;;;;;4.43;2.30;;;3.10;96.30;;;;;;4940290;29;20667;-85
2021/01/24 11:48:47;;;;;;;1.90;1.57;;;3.30;96.30;;;;;;4938777;29;20243;-83
2021/01/24 11:51:12;;;;;;;1.17;0.93;;;3.50;96.30;;;;;;4924297;29;20220;-82
2021/01/24 11:53:38;;;;;;;1.27;0.90;;;3.70;96.30;;;;;;4922596;29;20203;-82
2021/01/24 11:56:04;;;;;;;1.30;1.20;;;3.40;96.30;;;;;;4927603;29;20183;-82
2021/01/24 11:58:30;;;;;;;0.90;0.70;;;3.40;96.30;;;;;;4927485;29;20208;-83
2021/01/24 12:00:55;;;;;;;1.40;1.00;;;3.30;96.30;;;;;;4939500;29;20475;-82
2021/01/24 12:03:21;;;;;;;1.63;1.07;;;3.20;96.30;;;;;;4934132;29;20180;-81
2021/01/24 12:05:46;;;;;;;1.00;0.90;;;3.00;96.30;;;;;;4956429;28;20187;-83
2021/01/24 12:08:12;;;;;;;1.17;0.80;;;2.90;96.30;;;;;;4941442;29;20691;-84
2021/01/24 12:10:38;;;;;;;1.30;1.00;;;;;;;;;;4937480;29;20207;-85
2021/01/24 12:13:04;;;;;;;1.27;0.90;;;2.80;96.30;;;;;;4938187;29;20191;-84
2021/01/24 12:15:29;;;;;;;6.10;3.53;;;3.30;96.30;;;;;;4974505;23;20702;-77
2021/01/24 12:17:55;;;;;;;1.87;1.30;;;3.60;96.30;;;;;;4956552;29;20254;-76
2021/01/24 12:20:20;;;;;;;4.07;1.80;;;3.60;96.30;;;;;;4955542;28;20230;-77
2021/01/24 12:22:46;;;;;;;1.40;0.87;;;3.00;96.30;;;;;;4955492;29;20167;-77
2021/01/24 12:25:12;;;;;;;10.53;4.53;;;3.20;96.30;;;;;;4941770;29;20762;-77
2021/01/24 12:27:37;;;;;;;6.57;3.17;;;3.30;96.30;;;;;;4937517;28;20180;-78
2021/01/24 12:30:05;;;;;;;2.10;1.13;;;3.20;96.30;;;;;;4937431;29;20167;-81
2021/01/24 12:32:30;;;;;;;2.73;1.90;;;3.00;96.30;;;;;;4952051;29;20187;-80
2021/01/24 12:34:56;;;;;;;2.30;1.00;;;3.00;96.30;;;;;;4951623;28;20455;-80
2021/01/24 12:37:22;;;;;;;26.93;6.47;;;2.90;96.30;;;;;;4935990;29;20186;-80
2021/01/24 12:39:47;;;;;;;3.60;1.70;;;3.20;96.30;;;;;;4935719;29;20210;-79
2021/01/24 12:42:13;;;;;;;4.50;1.83;;;;;;;;;;4951941;29;20263;-79
2021/01/24 12:44:39;;;;;;;5.40;3.03;;;3.40;96.30;;;;;;4936090;29;20690;-79
2021/01/24 12:47:04;;;;;;;1.87;0.90;;;3.30;96.30;;;;;;4936770;29;20459;-80
2021/01/24 12:49:30;;;;;;;27.87;8.77;;;3.70;96.30;;;;;;4936863;29;20184;-80
2021/01/24 12:51:55;;;;;;;2.50;1.43;;;3.30;96.30;;;;;;4935727;29;20191;-80
2021/01/24 12:54:20;;;;;;;1.77;0.77;;;3.50;96.30;;;;;;4935783;29;20270;-80
2021/01/24 12:56:46;;;;;;;1.00;0.77;;;3.10;96.30;;;;;;4936515;29;20186;-79
2021/01/24 12:59:11;;;;;;;1.53;1.00;;;3.10;96.30;;;;;;4951602;29;20235;-79
2021/01/24 13:01:37;;;;;;;1.40;1.00;;;2.70;96.30;;;;;;4935748;29;20184;-80
2021/01/24 13:04:03;;;;;;;2.23;0.90;;;2.90;96.30;;;;;;4935551;29;20222;-80
2021/01/24 13:06:29;;;;;;;1.00;0.70;;;2.40;96.30;;;;;;4951179;29;20711;-80
2021/01/24 13:08:54;;;;;;;0.90;0.80;;;2.20;96.30;;;;;;4935696;29;20520;-81
2021/01/24 13:11:20;;;;;;;1.00;0.80;;;;;;;;;;4936705;29;20186;-80
2021/01/24 13:13:47;;;;;;;0.90;0.73;;;2.20;96.30;;;;;;4952038;28;20203;-81
2021/01/24 13:16:13;;;;;;;1.00;0.70;;;2.40;96.30;;;;;;4954105;29;20171;-80
2021/01/24 13:18:39;;;;;;;0.90;0.70;;;2.30;96.30;;;;;;4955740;29;20517;-80
2021/01/24 13:21:04;;;;;;;1.30;0.80;;;2.30;96.30;;;;;;4955539;29;20233;-82
2021/01/24 13:23:30;;;;;;;1.27;1.03;;;2.20;96.30;;;;;;4955992;28;20907;-82
2021/01/24 13:25:55;;;;;;;1.00;0.80;;;2.20;96.30;;;;;;4970384;28;20628;-81
2021/01/24 13:28:21;;;;;;;3.00;2.53;;;2.20;96.30;;;;;;4970952;28;20187;-80
2021/01/24 13:30:47;;;;;;;2.20;0.90;;;2.10;96.30;;;;;;4950672;29;20267;-80
2021/01/24 13:33:12;;;;;;;1.50;1.40;;;2.10;96.30;;;;;;4951436;29;20222;-81
2021/01/24 13:35:38;;;;;;;1.23;1.00;;;2.00;96.30;;;;;;4950602;29;20474;-81
2021/01/24 13:38:03;;;;;;;1.07;0.97;;;2.00;96.30;;;;;;4951011;29;20663;-81
2021/01/24 13:40:29;;;;;;;2.47;1.80;;;1.70;96.30;;;;;;4936283;29;20171;-80
2021/01/24 13:42:54;;;;;;;2.07;1.80;;;1.50;96.30;;;;;;4951158;29;20239;-80
2021/01/24 13:45:20;;;;;;;2.80;2.20;;;;;;;;;;4950368;29;20218;-81
2021/01/24 13:47:46;;;;;;;8.87;4.93;;;1.50;96.30;;;;;;4934758;29;20179;-79
2021/01/24 13:50:11;;;;;;;3.73;2.50;;;1.50;96.30;;;;;;4950634;29;20422;-79
2021/01/24 13:52:37;;;;;;;2.17;1.60;;;1.20;96.30;;;;;;4934799;29;20604;-79
2021/01/24 13:55:06;;;;;;;2.03;1.80;;;1.30;96.30;;;;;;4950108;29;20254;-79
2021/01/24 13:57:32;;;;;;;1.37;1.10;;;1.00;96.30;;;;;;4950688;29;20180;-80
2021/01/24 13:59:57;;;;;;;1.20;0.80;;;1.00;96.30;;;;;;4935746;29;20470;-78
2021/01/24 14:02:23;;;;;;;8.97;6.73;;;1.10;96.30;;;;;;4934075;29;20171;-79
2021/01/24 14:04:48;;;;;;;6.80;5.47;;;1.10;96.30;;;;;;4934270;29;20691;-80
2021/01/24 14:07:14;;;;;;;1.10;0.90;;;1.10;96.30;;;;;;4935206;29;20635;-80
2021/01/24 14:09:39;;;;;;;2.20;1.23;;;0.90;96.30;;;;;;4934458;29;20643;-79
2021/01/24 14:12:05;;;;;;;1.23;0.80;;;0.80;96.30;;;;;;4938119;29;20621;-78
2021/01/24 14:14:31;;;;;;;1.10;0.83;;;0.80;96.30;;;;;;4953275;28;20781;-79
2021/01/24 14:16:56;;;;;;;0.90;0.70;;;0.80;96.30;;;;;;4934597;29;20427;-79
2021/01/24 14:19:22;;;;;;;1.00;0.70;;;0.80;96.30;;;;;;4935488;29;20276;-79
2021/01/24 14:21:47;;;;;;;1.07;0.80;;;0.60;96.30;;;;;;4934248;29;20179;-79
2021/01/24 14:24:19;;;;;;;1.20;1.00;;;;;;;;;;4937994;29;20666;-79
2021/01/24 14:26:44;;;;;;;1.20;1.10;;;0.50;96.30;;;;;;4949753;29;20191;-78
2021/01/24 14:29:09;;;;;;;0.90;0.70;;;0.40;96.30;;;;;;4935028;29;20423;-80
2021/01/24 14:31:35;;;;;;;1.23;0.80;;;0.30;96.30;;;;;;4933907;29;20172;-79
2021/01/24 14:34:01;;;;;;;1.00;0.80;;;0.40;96.30;;;;;;4935206;29;20675;-81
2021/01/24 14:36:26;;;;;;;1.30;0.70;;;0.40;96.30;;;;;;4933470;29;20618;-80
2021/01/24 14:38:53;;;;;;;1.13;0.80;;;0.40;96.30;;;;;;4935294;29;20207;-80
2021/01/24 14:41:19;;;;;;;0.90;0.70;;;0.30;96.30;;;;;;4950008;29;20187;-80
2021/01/24 14:43:44;;;;;;;1.17;0.83;;;0.20;96.30;;;;;;4933939;29;20794;-80
2021/01/24 14:46:10;;;;;;;0.90;0.80;;;0.20;96.30;;;;;;4933703;29;20176;-80
2021/01/24 14:48:36;;;;;;;1.33;1.23;;;0.10;96.30;;;;;;4936129;29;20663;-79
2021/01/24 14:51:01;;;;;;;1.30;0.90;;;0.10;96.30;;;;;;4934601;29;20184;-80
2021/01/24 14:53:27;;;;;;;1.20;1.10;;;0.10;96.30;;;;;;4934044;29;20556;-79
2021/01/24 14:55:52;;;;;;;3.63;2.43;;;0.00;96.30;;;;;;4934917;29;20175;-77
2021/01/24 14:58:18;;;;;;;1.23;1.10;;;0.00;96.30;;;;;;4933684;29;20207;-80
2021/01/24 15:00:43;;;;;;;1.20;1.00;;;0.00;96.30;;;;;;4935227;29;20184;-80
2021/01/24 15:03:09;;;;;;;1.07;0.97;;;0.00;96.30;;;;;;4933981;29;20213;-78
2021/01/24 15:05:34;;;;;;;1.10;0.90;;;-0.10;96.30;;;;;;4933304;29;20290;-79
2021/01/24 15:08:01;;;;;;;1.00;0.90;;;-0.10;96.30;;;;;;4934846;29;20235;-78
2021/01/24 15:10:27;;;;;;;1.63;1.00;;;-0.10;96.30;;;;;;4935732;29;20235;-76
2021/01/24 15:12:52;;;;;;;1.10;0.90;;;-0.20;96.30;;;;;;4944978;29;20966;-80
2021/01/24 15:15:18;;;;;;;1.13;1.00;;;-0.20;96.30;;;;;;4954141;28;20214;-76
2021/01/24 15:17:43;;;;;;;1.30;0.97;;;-0.20;96.30;;;;;;4958221;29;20249;-78
2021/01/24 15:20:09;;;;;;;1.40;1.10;;;-0.30;96.30;;;;;;4957949;29;20542;-78
2021/01/24 15:22:35;;;;;;;1.57;1.20;;;-0.30;96.30;;;;;;4945911;28;20302;-79
2021/01/24 15:25:02;;;;;;;1.87;1.63;;;-0.30;96.30;;;;;;4936502;29;20873;-79
2021/01/24 15:27:29;;;;;;;2.73;1.20;;;-0.30;96.30;;;;;;4937206;29;20191;-79
2021/01/24 15:29:55;;;;;;;1.70;1.60;;;-0.40;96.30;;;;;;4953530;29;20578;-79
2021/01/24 15:32:20;;;;;;;1.70;1.60;;;-0.30;96.30;;;;;;4938697;29;20915;-79
2021/01/24 15:34:47;;;;;;;2.27;1.20;;;-0.40;96.30;;;;;;4937555;29;20199;-79
2021/01/24 15:37:13;;;;;;;1.10;1.00;;;-0.40;96.30;;;;;;4938013;29;20203;-78
2021/01/24 15:39:39;;;;;;;1.30;1.03;;;-0.40;96.30;;;;;;4938811;29;20924;-77
2021/01/24 15:42:04;;;;;;;1.70;1.20;;;-0.40;96.30;;;;;;4952688;28;20507;-77
2021/01/24 15:44:30;;;;;;;2.03;1.10;;;-0.40;96.30;;;;;;4937255;29;20254;-76
2021/01/24 15:46:56;;;;;;;1.33;1.23;;;;;;;;;;4937852;29;20189;-78
2021/01/24 15:49:21;;;;;;;3.70;2.50;;;-0.40;96.30;;;;;;4937263;29;20208;-77
2021/01/24 15:51:46;;;;;;;1.87;1.50;;;-0.50;96.30;;;;;;4938531;29;20191;-78
2021/01/24 15:54:12;;;;;;;2.50;1.80;;;-0.50;96.30;;;;;;4937100;29;20250;-78
2021/01/24 15:56:39;;;;;;;1.30;1.17;;;;;;;;;;4937761;29;20238;-77
2021/01/24 15:59:05;;;;;;;2.47;1.20;;;-0.50;96.30;;;;;;4938509;29;20203;-78
2021/01/24 16:01:30;;;;;;;1.43;1.17;;;-0.50;96.30;;;;;;4937206;29;20989;-79
2021/01/24 16:03:56;;;;;;;2.17;1.20;;;-0.50;96.30;;;;;;4937271;29;20206;-78
2021/01/24 16:06:21;;;;;;;1.40;1.30;;;-0.50;96.30;;;;;;4936751;29;20188;-78
2021/01/24 16:08:47;;;;;;;1.73;1.30;;;-0.50;96.30;;;;;;4936946;29;20188;-78
2021/01/24 16:11:13;;;;;;;1.97;1.40;;;-0.50;96.30;;;;;;4936966;29;20184;-78
2021/01/24 16:13:38;;;;;;;1.70;1.43;;;-0.50;96.30;;;;;;4942621;28;20563;-78
2021/01/24 16:16:05;;;;;;;1.40;1.23;;;-0.50;96.30;;;;;;4936059;29;20179;-78
2021/01/24 16:18:31;;;;;;;1.10;0.93;;;-0.50;96.30;;;;;;4936388;29;20203;-78
2021/01/24 16:20:56;;;;;;;3.13;1.40;;;-0.50;96.30;;;;;;4936449;29;20428;-77
2021/01/24 16:23:22;;;;;;;1.77;1.30;;;-0.60;96.30;;;;;;4937098;29;20535;-77
2021/01/24 16:25:47;;;;;;;1.20;1.10;;;-0.50;96.30;;;;;;4934941;29;20219;-78
2021/01/24 16:28:13;;;;;;;2.60;2.40;;;-0.60;96.30;;;;;;4936436;29;20171;-78
2021/01/24 16:30:39;;;;;;;2.73;2.20;;;-0.60;96.30;;;;;;4936119;29;20196;-77
2021/01/24 16:33:05;;;;;;;11.50;7.83;;;-0.60;96.30;;;;;;4937271;29;20187;-77
2021/01/24 16:35:31;;;;;;;5.30;3.83;;;-0.60;96.30;;;;;;4933759;29;20212;-77
2021/01/24 16:37:56;;;;;;;2.57;2.10;;;-0.70;96.30;;;;;;4948008;29;20439;-75
2021/01/24 16:40:22;;;;;;;2.00;1.80;;;-0.60;96.30;;;;;;4931126;29;20180;-75
2021/01/24 16:42:47;;;;;;;2.47;1.63;;;-0.70;96.30;;;;;;4934356;29;20625;-76
2021/01/24 16:45:13;;;;;;;1.93;1.73;;;-0.70;96.30;;;;;;4946365;28;20211;-75
2021/01/24 16:47:39;;;;;;;1.97;1.80;;;-0.70;96.30;;;;;;4935322;29;20259;-76
2021/01/24 16:50:05;;;;;;;1.97;1.77;;;-0.70;96.30;;;;;;4932017;29;20204;-75
2021/01/24 16:52:31;;;;;;;2.07;1.90;;;-0.60;96.30;;;;;;4934752;29;20215;-75
2021/01/24 16:54:57;;;;;;;2.10;1.20;;;-0.70;96.30;;;;;;4935040;29;20514;-75
2021/01/24 16:57:23;;;;;;;2.53;1.70;;;-0.70;96.30;;;;;;4932463;29;20259;-76